Flight Track Log - Related Links

Times and Time Zones

All times are in EDT time to prevent confusion due to time zone crossing. See the SWA1718 flight status page for this flight to view local times or setup timezone preferences in your user account.

Time Position Orientation Groundspeed Altitude Reporting Facility
EDT Latitude Longitude Course Direction KTS MPH feet Rate Location/Type
Wed 10:30:06 PM 41.8167 -87.5833 90° East 254 292 3,000  Level Chicago TRACON
Wed 10:31:06 PM 41.8500 -87.5000 62° Northeast 260 299 3,000 900 Level Chicago TRACON
Wed 10:32:06 PM 41.8833 -87.4167 62° Northeast 267 307 4,800 1,550 Climbing Chicago TRACON
Wed 10:33:06 PM 41.9333 -87.3333 51° Northeast 306 352 6,100 2,149 Climbing Chicago TRACON
Wed 10:34:00 PM 41.8605 -86.6196 86° East  Level FlightAware Approximate
Wed 10:34:20 PM 41.9742 -87.2133 65° Northeast 314 361 9,600  Level Chicago Center
Wed 10:35:21 PM 41.9639 -87.0747 96° East 318 366 12,800 2,951 Climbing Chicago Center
Wed 10:36:22 PM 41.9500 -86.9483 98° East 340 391 15,600 2,410 Climbing Chicago Center
Wed 10:37:23 PM 41.9578 -86.8117 86° East 374 430 17,700 2,016 Climbing Chicago Center
Wed 10:38:24 PM 41.9719 -86.6733 82° East 388 447 19,700 1,918 Climbing Chicago Center
Wed 10:39:25 PM 41.9883 -86.5197 82° East 412 474 21,600 1,983 Climbing Chicago Center
Wed 10:40:25 PM 42.0039 -86.3647 82° East 418 481 23,700 1,884 Climbing Chicago Center
Wed 10:41:26 PM 42.0186 -86.2069 83° East 424 488 25,400 1,672 Climbing Chicago Center
Wed 10:42:27 PM 42.0356 -86.0447 82° East 435 501 27,100 1,426 Climbing Chicago Center
Wed 10:43:28 PM 42.0525 -85.8644 83° East 435 501 28,300 1,279 Climbing Chicago Center
Wed 10:44:29 PM 42.0689 -85.6958 82° East 449 517 29,700 1,279 Climbing Chicago Center
Wed 10:45:30 PM 42.0844 -85.5233 83° East 461 531 30,900 1,279 Climbing Chicago Center
Wed 10:46:31 PM 42.1017 -85.3511 82° East 467 537 32,300 1,370 Climbing Chicago Center
Wed 10:47:02 PM 42.1125 -85.2639 80° East 464 534 33,000 1,121 Climbing Cleveland Center
Wed 10:48:02 PM 42.1286 -85.0744 83° East 464 534 34,000 850 Climbing Cleveland Center
Wed 10:49:02 PM 42.1417 -84.8961 84° East 464 534 34,700 500 Climbing Cleveland Center
Wed 10:50:02 PM 42.1586 -84.7181 83° East 470 541 35,000 150 Climbing Cleveland Center
Wed 10:51:02 PM 42.1681 -84.5644 85° East 470 541 35,000  Level Cleveland Center
Wed 10:52:02 PM 42.1825 -84.3831 84° East 470 541 35,000  Level Cleveland Center
Wed 10:53:02 PM 42.1967 -84.2047 84° East 475 547 35,000  Level Cleveland Center
Wed 10:54:02 PM 42.2125 -84.0344 83° East 475 547 35,000  Level Cleveland Center
Wed 10:55:02 PM 42.2258 -83.8583 84° East 475 547 35,000  Level Cleveland Center
Wed 10:56:02 PM 42.2392 -83.6825 84° East 475 547 35,000  Level Cleveland Center
Wed 10:57:02 PM 42.2547 -83.4811 84° East 482 555 35,000  Level Cleveland Center
Wed 10:58:02 PM 42.2675 -83.3050 84° East 475 547 35,000  Level Cleveland Center
Wed 10:59:02 PM 42.2800 -83.1258 85° East 480 552 35,000  Level Cleveland Center
Wed 11:00:02 PM 42.2919 -82.9467 85° East 480 552 35,000  Level Cleveland Center
Wed 11:01:02 PM 42.3039 -82.7703 85° East 480 552 35,000  Level Cleveland Center
Wed 11:02:02 PM 42.3175 -82.5967 84° East 480 552 35,000  Level Cleveland Center
Wed 11:03:02 PM 42.3289 -82.4172 85° East 480 552 35,000  Level Cleveland Center
Wed 11:04:02 PM 42.3400 -82.2378 85° East 480 552 35,000 -350 Level Cleveland Center
Wed 11:05:02 PM 42.3528 -82.0553 85° East 480 552 34,300 -850 Descending Cleveland Center
Wed 11:06:02 PM 42.3633 -81.8758 85° East 480 552 33,300 -1,000 Descending Cleveland Center
Wed 11:07:02 PM 42.3736 -81.6933 86° East 480 552 32,300 -950 Descending Cleveland Center
Wed 11:08:02 PM 42.3836 -81.5108 86° East 480 552 31,400 -950 Descending Cleveland Center
Wed 11:09:02 PM 42.3953 -81.3311 85° East 480 552 30,400 -1,050 Descending Cleveland Center
Wed 11:10:02 PM 42.4047 -81.1511 86° East 480 552 29,300 -1,450 Descending Cleveland Center
Wed 11:11:02 PM 42.4136 -80.9656 86° East 480 552 27,500 -1,150 Descending Cleveland Center
Wed 11:12:02 PM 42.4225 -80.7914 86° East 475 547 27,000 -298 Descending Cleveland Center
Wed 11:13:03 PM 42.4311 -80.6367 86° East 462 532 26,900 -600 Descending Cleveland Center
Wed 11:14:02 PM 42.4372 -80.4764 87° East 445 512 25,800 -1,109 Descending Cleveland Center
Wed 11:15:02 PM 42.4453 -80.3158 86° East 423 487 24,700 -1,550 Descending Cleveland Center
Wed 11:16:02 PM 42.4553 -80.1611 85° East 418 481 22,700 -2,033 Descending Cleveland Center
Wed 11:17:03 PM 42.4608 -80.0061 87° East 417 480 20,600 -2,150 Descending Cleveland Center
Wed 11:18:02 PM 42.4744 -79.8483 83° East 417 480 18,400 -2,118 Descending Cleveland Center
Wed 11:19:02 PM 42.5194 -79.7128 66° East 396 456 16,400 -2,200 Descending Cleveland Center
Wed 11:20:02 PM 42.5706 -79.5825 62° Northeast 389 448 14,000 -2,850 Descending Cleveland Center
Wed 11:21:02 PM 42.6275 -79.4489 60° Northeast 389 448 10,700 -2,050 Descending Cleveland Center
Wed 11:22:02 PM 42.6742 -79.3236 63° Northeast 389 448 9,900 -1,550 Descending Cleveland Center
Wed 11:23:02 PM 42.7208 -79.2097 61° Northeast 333 383 7,600 -1,950 Descending Cleveland Center
Wed 11:24:02 PM 42.7592 -79.1100 62° Northeast 306 352 6,000 -1,800 Descending Cleveland Center
Wed 11:25:02 PM 42.7936 -79.0300 60° Northeast 278 320 4,000 -1,300 Descending Cleveland Center
Wed 11:26:02 PM 42.8300 -78.9356 62° Northeast 278 320 3,400 -550 Descending Cleveland Center
Wed 11:27:02 PM 42.8600 -78.8583 62° Northeast 225 259 2,900 -661 Descending Cleveland Center
Wed 11:27:51 PM 42.8833 -78.8000 61° Northeast 178 205 2,200 -881 Descending Buffalo TRACON
Wed 11:28:51 PM 42.9167 -78.7667 36° Northeast 131 151 1,300 -900 Descending Buffalo TRACON
Wed 11:31:00 PM 42.9333 -78.7167 36° Northeast  Level FlightAware Approximate

Login

Don't have an account? Register now (free) for customized features, flight alerts, and more!